createdAt,value
2019-05-20T00:01:39.561Z,96010.00
2019-05-20T00:04:11.657Z,96005.00
2019-05-20T00:06:42.975Z,95999.00
2019-05-20T00:09:14.194Z,96004.00
2019-05-20T00:11:45.594Z,96005.00
2019-05-20T00:14:17.113Z,95999.00
2019-05-20T00:16:48.307Z,96009.00
2019-05-20T00:19:19.518Z,96014.00
2019-05-20T00:21:50.750Z,96013.00
2019-05-20T00:24:22.046Z,96012.00
2019-05-20T00:26:53.347Z,96010.00
2019-05-20T00:29:24.516Z,96013.00
2019-05-20T00:31:56.247Z,96015.00
2019-05-20T00:34:35.112Z,95938.00
2019-05-20T00:37:00.654Z,95998.00
2019-05-20T00:39:32.269Z,96009.00
2019-05-20T00:42:03.633Z,95993.00
2019-05-20T00:44:34.995Z,96008.00
2019-05-20T00:47:06.229Z,96004.00
2019-05-20T00:49:37.360Z,95994.00
2019-05-20T00:52:08.883Z,96000.00
2019-05-20T00:54:40.246Z,95995.00
2019-05-20T00:57:11.532Z,95993.00
2019-05-20T00:59:42.641Z,95993.00
2019-05-20T01:02:14.058Z,95989.00
2019-05-20T01:04:45.278Z,95994.00
2019-05-20T01:07:16.572Z,95987.00
2019-05-20T01:09:47.966Z,95985.00
2019-05-20T01:12:19.267Z,95983.00
2019-05-20T01:14:50.483Z,95981.00
2019-05-20T01:17:22.071Z,95982.00
2019-05-20T01:19:53.390Z,95961.00
2019-05-20T01:22:25.281Z,95966.00
2019-05-20T01:24:56.815Z,95962.00
2019-05-20T01:27:28.121Z,95964.00
2019-05-20T01:29:59.525Z,95962.00
2019-05-20T01:32:30.826Z,95961.00
2019-05-20T01:35:02.399Z,95949.00
2019-05-20T01:37:33.613Z,95949.00
2019-05-20T01:40:05.107Z,95957.00
2019-05-20T01:42:36.330Z,95941.00
2019-05-20T01:45:08.572Z,95952.00
2019-05-20T01:47:39.942Z,95951.00
2019-05-20T01:50:11.844Z,95951.00
2019-05-20T01:52:43.169Z,95938.00
2019-05-20T01:55:14.542Z,95932.00
2019-05-20T01:57:45.865Z,95929.00
2019-05-20T02:00:17.854Z,95932.00
2019-05-20T02:02:49.711Z,95932.00
2019-05-20T02:05:20.992Z,95926.00
2019-05-20T02:07:52.293Z,95918.00
2019-05-20T02:10:24.104Z,95922.00
2019-05-20T02:12:55.853Z,95919.00
2019-05-20T02:15:46.017Z,95918.00
2019-05-20T02:18:17.670Z,95908.00
2019-05-20T02:20:48.916Z,95905.00
2019-05-20T02:23:20.123Z,95907.00
2019-05-20T02:25:52.529Z,95910.00
2019-05-20T02:28:23.818Z,95909.00
2019-05-20T02:30:57.054Z,95909.00
2019-05-20T02:33:29.038Z,95904.00
2019-05-20T02:36:00.322Z,95905.00
2019-05-20T02:38:31.767Z,95895.00
2019-05-20T02:41:03.136Z,95895.00
2019-05-20T02:43:34.408Z,95894.00
2019-05-20T02:46:06.799Z,95896.00
2019-05-20T02:48:38.054Z,95898.00
2019-05-20T02:51:09.320Z,95902.00
2019-05-20T02:53:40.551Z,95896.00
2019-05-20T02:56:11.920Z,95891.00
2019-05-20T02:58:44.255Z,95885.00
2019-05-20T03:01:15.577Z,95892.00
2019-05-20T03:03:46.804Z,95888.00
2019-05-20T03:06:18.015Z,95882.00
2019-05-20T03:08:50.333Z,95892.00
2019-05-20T03:11:21.989Z,95891.00
2019-05-20T03:13:54.012Z,95898.00
2019-05-20T03:16:25.286Z,95908.00
2019-05-20T03:18:56.632Z,95892.00
2019-05-20T03:21:28.136Z,95890.00
2019-05-20T03:23:59.385Z,95897.00
2019-05-20T03:26:30.751Z,95886.00
2019-05-20T03:29:02.095Z,95895.00
2019-05-20T03:31:33.710Z,95881.00
2019-05-20T03:34:05.230Z,95887.00
2019-05-20T03:36:36.532Z,95883.00
2019-05-20T03:39:07.935Z,95883.00
2019-05-20T03:41:39.158Z,95876.00
2019-05-20T03:44:10.389Z,95883.00
2019-05-20T03:46:41.651Z,95883.00
2019-05-20T03:49:13.153Z,95882.00
2019-05-20T03:51:44.658Z,95880.00
2019-05-20T03:54:16.252Z,95880.00
2019-05-20T03:56:47.526Z,95878.00
2019-05-20T03:59:18.794Z,95872.00
2019-05-20T04:01:50.297Z,95872.00
2019-05-20T04:04:25.034Z,95879.00
2019-05-20T04:06:54.474Z,95882.00
2019-05-20T04:09:25.713Z,95899.00
2019-05-20T04:11:57.375Z,95875.00
2019-05-20T04:14:28.880Z,95881.00
2019-05-20T04:17:00.315Z,95877.00
2019-05-20T04:19:31.661Z,95865.00
2019-05-20T04:22:02.923Z,95885.00
2019-05-20T04:24:34.598Z,95878.00
2019-05-20T04:27:06.081Z,95882.00
2019-05-20T04:29:38.642Z,95882.00
2019-05-20T04:32:10.796Z,95880.00
2019-05-20T04:34:42.113Z,95882.00
2019-05-20T04:37:13.395Z,95880.00
2019-05-20T04:39:45.723Z,95881.00
2019-05-20T04:42:17.098Z,95890.00
2019-05-20T04:44:48.490Z,95890.00
2019-05-20T04:47:19.759Z,95888.00
2019-05-20T04:49:53.300Z,95871.00
2019-05-20T04:52:24.534Z,95885.00
2019-05-20T04:54:56.801Z,95885.00
2019-05-20T04:57:28.313Z,95884.00
2019-05-20T04:59:59.822Z,95892.00
2019-05-20T05:02:31.345Z,95893.00
2019-05-20T05:05:03.812Z,95895.00
2019-05-20T05:07:35.821Z,95880.00
2019-05-20T05:10:10.599Z,95886.00
2019-05-20T05:12:42.405Z,95900.00
2019-05-20T05:15:14.544Z,95895.00
2019-05-20T05:17:46.162Z,95894.00
2019-05-20T05:20:18.697Z,95888.00
2019-05-20T05:22:50.133Z,95898.00
2019-05-20T05:25:22.145Z,95890.00
2019-05-20T05:27:53.460Z,95890.00
2019-05-20T05:30:24.761Z,95888.00
2019-05-20T05:32:56.325Z,95895.00
2019-05-20T05:35:29.424Z,95888.00
2019-05-20T05:38:02.123Z,95887.00
2019-05-20T05:40:34.026Z,95908.00
2019-05-20T05:43:06.605Z,95891.00
2019-05-20T05:45:37.987Z,95889.00
2019-05-20T05:48:09.294Z,95896.00
2019-05-20T05:50:40.997Z,95891.00
2019-05-20T05:53:12.126Z,95891.00
2019-05-20T05:55:43.437Z,95887.00
2019-05-20T05:58:14.704Z,95894.00
2019-05-20T06:00:46.266Z,95900.00
2019-05-20T06:03:17.554Z,95886.00
2019-05-20T06:05:49.258Z,95888.00
2019-05-20T06:08:25.816Z,95883.00
2019-05-20T06:11:01.205Z,95888.00
2019-05-20T06:13:32.797Z,95882.00
2019-05-20T06:16:04.090Z,95882.00
2019-05-20T06:18:35.381Z,95887.00
2019-05-20T06:21:06.811Z,95881.00
2019-05-20T06:23:42.686Z,95883.00
2019-05-20T06:26:14.038Z,95877.00
2019-05-20T06:28:45.860Z,95875.00
2019-05-20T06:31:17.218Z,95875.00
2019-05-20T06:33:48.805Z,95879.00
2019-05-20T06:36:27.064Z,95941.00
2019-05-20T06:39:12.478Z,95891.00
2019-05-20T06:41:43.863Z,95893.00
2019-05-20T06:44:15.488Z,95891.00
2019-05-20T06:46:46.647Z,95897.00
2019-05-20T06:49:18.327Z,95903.00
2019-05-20T06:51:49.586Z,95903.00
2019-05-20T06:54:20.899Z,95911.00
2019-05-20T06:56:52.439Z,95914.00
2019-05-20T06:59:23.866Z,95914.00
2019-05-20T07:01:55.129Z,95915.00
2019-05-20T07:04:26.481Z,95906.00
2019-05-20T07:06:57.915Z,95923.00
2019-05-20T07:09:29.481Z,95910.00
2019-05-20T07:12:01.489Z,95917.00
2019-05-20T07:14:33.144Z,95913.00
2019-05-20T07:17:04.554Z,95918.00
2019-05-20T07:19:36.558Z,95909.00
2019-05-20T07:22:07.874Z,95904.00
2019-05-20T07:24:39.962Z,95910.00
2019-05-20T07:27:11.627Z,95906.00
2019-05-20T07:29:42.754Z,95905.00
2019-05-20T07:32:14.073Z,95905.00
2019-05-20T07:34:45.346Z,95909.00
2019-05-20T07:37:16.769Z,95896.00
2019-05-20T07:39:48.275Z,95910.00
2019-05-20T07:42:19.620Z,95900.00
2019-05-20T07:44:51.576Z,95902.00
2019-05-20T07:47:23.338Z,95895.00
2019-05-20T07:49:55.411Z,95889.00
2019-05-20T07:52:29.249Z,95889.00
2019-05-20T07:55:01.368Z,95899.00
2019-05-20T07:57:37.198Z,95898.00
2019-05-20T08:00:08.959Z,95896.00
2019-05-20T08:02:40.890Z,95889.00
2019-05-20T08:05:12.721Z,95895.00
2019-05-20T08:07:51.937Z,95896.00
2019-05-20T08:10:17.623Z,95892.00
2019-05-20T08:12:48.966Z,95891.00
2019-05-20T08:15:20.254Z,95898.00
2019-05-20T08:17:51.597Z,95906.00
2019-05-20T08:20:23.317Z,95898.00
2019-05-20T08:22:54.615Z,95897.00
2019-05-20T08:25:25.871Z,95896.00
2019-05-20T08:27:57.142Z,95901.00
2019-05-20T08:30:37.464Z,95907.00
2019-05-20T08:33:10.317Z,95902.00
2019-05-20T08:35:41.722Z,95908.00
2019-05-20T08:38:13.017Z,95911.00
2019-05-20T08:40:48.310Z,95911.00
2019-05-20T08:43:17.195Z,95910.00
2019-05-20T08:45:49.760Z,95908.00
2019-05-20T08:48:21.359Z,95908.00
2019-05-20T08:50:52.608Z,95916.00
2019-05-20T08:53:24.183Z,95912.00
2019-05-20T08:55:55.331Z,95907.00
2019-05-20T08:58:26.535Z,95898.00
2019-05-20T09:00:57.828Z,95911.00
2019-05-20T09:03:30.409Z,95907.00
2019-05-20T09:06:02.107Z,95903.00
2019-05-20T09:08:33.377Z,95912.00
2019-05-20T09:11:04.912Z,95917.00
2019-05-20T09:13:36.179Z,95912.00
2019-05-20T09:16:07.803Z,95907.00
2019-05-20T09:18:39.082Z,95913.00
2019-05-20T09:21:10.867Z,95898.00
2019-05-20T09:23:42.066Z,95913.00
2019-05-20T09:26:13.351Z,95905.00
2019-05-20T09:28:44.905Z,95900.00
2019-05-20T09:31:16.290Z,95910.00
2019-05-20T09:33:47.828Z,95905.00
2019-05-20T09:36:19.394Z,95906.00
2019-05-20T09:38:50.928Z,95905.00
2019-05-20T09:41:22.139Z,95903.00
2019-05-20T09:43:53.344Z,95908.00
2019-05-20T09:46:24.635Z,95903.00
2019-05-20T09:48:55.745Z,95907.00
2019-05-20T09:51:27.031Z,95907.00
2019-05-20T09:53:58.566Z,95909.00
2019-05-20T09:56:29.856Z,95912.00
2019-05-20T09:59:01.109Z,95920.00
2019-05-20T10:01:32.776Z,95901.00
2019-05-20T10:04:04.272Z,95916.00
2019-05-20T10:06:36.090Z,95903.00
2019-05-20T10:09:08.288Z,95905.00
2019-05-20T10:11:39.570Z,95901.00
2019-05-20T10:14:10.770Z,95902.00
2019-05-20T10:16:43.038Z,95897.00
2019-05-20T10:19:14.236Z,95896.00
2019-05-20T10:21:46.901Z,95897.00
2019-05-20T10:24:18.378Z,95896.00
2019-05-20T10:26:49.644Z,95895.00
2019-05-20T10:29:21.188Z,95919.00
2019-05-20T10:31:52.741Z,95920.00
2019-05-20T10:34:23.860Z,95895.00
2019-05-20T10:36:55.158Z,95906.00
2019-05-20T10:39:26.625Z,95892.00
2019-05-20T10:41:58.131Z,95899.00
2019-05-20T10:44:29.253Z,95906.00
2019-05-20T10:47:00.471Z,95897.00
2019-05-20T10:49:32.163Z,95902.00
2019-05-20T10:52:03.760Z,95902.00
2019-05-20T10:54:35.067Z,95906.00
2019-05-20T10:57:06.412Z,95914.00
2019-05-20T10:59:37.978Z,95908.00
2019-05-20T11:02:11.002Z,95900.00
2019-05-20T11:04:42.519Z,95913.00
2019-05-20T11:07:14.171Z,95899.00
2019-05-20T11:09:45.729Z,95907.00
2019-05-20T11:12:17.920Z,95897.00
2019-05-20T11:14:49.129Z,95907.00
2019-05-20T11:17:20.410Z,95907.00
2019-05-20T11:19:52.004Z,95915.00
2019-05-20T11:22:23.344Z,95898.00
2019-05-20T11:24:54.844Z,95890.00
2019-05-20T11:27:26.376Z,95898.00
2019-05-20T11:29:58.476Z,95896.00
2019-05-20T11:32:29.775Z,95901.00
2019-05-20T11:35:00.983Z,95904.00
2019-05-20T11:37:33.521Z,95927.00
2019-05-20T11:40:06.511Z,95914.00
2019-05-20T11:42:38.152Z,95917.00
2019-05-20T11:45:09.836Z,95898.00
2019-05-20T11:47:41.194Z,95894.00
2019-05-20T11:50:13.287Z,95901.00
2019-05-20T11:52:44.499Z,95908.00
2019-05-20T11:55:16.398Z,95902.00
2019-05-20T11:57:47.541Z,95904.00
2019-05-20T12:00:18.999Z,95898.00
2019-05-20T12:02:50.631Z,95916.00
2019-05-20T12:05:22.229Z,95891.00
2019-05-20T12:07:53.775Z,95893.00
2019-05-20T12:10:24.962Z,95899.00
2019-05-20T12:12:56.377Z,95901.00
2019-05-20T12:15:27.641Z,95890.00
2019-05-20T12:17:59.573Z,95892.00
2019-05-20T12:20:31.749Z,95890.00
2019-05-20T12:23:03.306Z,95895.00
2019-05-20T12:25:34.878Z,95892.00
2019-05-20T12:28:06.232Z,95886.00
2019-05-20T12:30:37.890Z,95881.00
2019-05-20T12:33:18.685Z,95901.00
2019-05-20T12:35:42.647Z,95884.00
2019-05-20T12:38:13.863Z,95891.00
2019-05-20T12:40:45.062Z,95895.00
2019-05-20T12:43:16.305Z,95892.00
2019-05-20T12:45:47.796Z,95887.00
2019-05-20T12:48:19.021Z,95891.00
2019-05-20T12:50:50.299Z,95882.00
2019-05-20T12:53:21.527Z,95888.00
2019-05-20T12:55:52.707Z,95896.00
2019-05-20T12:58:24.028Z,95877.00
2019-05-20T13:00:55.153Z,95879.00
2019-05-20T13:03:26.359Z,95871.00
2019-05-20T13:05:57.790Z,95896.00
2019-05-20T13:08:29.034Z,95877.00
2019-05-20T13:11:00.210Z,95875.00
2019-05-20T13:13:31.419Z,95871.00
2019-05-20T13:16:02.834Z,95860.00
2019-05-20T13:18:34.148Z,95857.00
2019-05-20T13:21:05.475Z,95857.00
2019-05-20T13:23:36.694Z,95849.00
2019-05-20T13:26:07.958Z,95845.00
2019-05-20T13:28:39.245Z,95835.00
2019-05-20T13:31:10.663Z,95833.00
2019-05-20T13:33:41.980Z,95835.00
2019-05-20T13:36:13.303Z,95825.00
2019-05-20T13:38:44.994Z,95823.00
2019-05-20T13:41:16.614Z,95814.00
2019-05-20T13:43:48.145Z,95817.00
2019-05-20T13:46:19.406Z,95806.00
2019-05-20T13:48:50.793Z,95805.00
2019-05-20T13:51:22.220Z,95802.00
2019-05-20T13:53:53.558Z,95794.00
2019-05-20T13:56:24.759Z,95798.00
2019-05-20T13:58:56.058Z,95793.00
2019-05-20T14:01:27.895Z,95799.00
2019-05-20T14:03:59.477Z,95795.00
2019-05-20T14:06:30.776Z,95792.00
2019-05-20T14:09:02.034Z,95791.00
2019-05-20T14:11:35.143Z,95795.00
2019-05-20T14:14:06.439Z,95796.00
2019-05-20T14:16:38.094Z,95795.00
2019-05-20T14:19:09.404Z,95799.00
2019-05-20T14:21:40.775Z,95792.00
2019-05-20T14:24:12.032Z,95794.00
2019-05-20T14:26:43.341Z,95807.00
2019-05-20T14:29:14.678Z,95794.00
2019-05-20T14:31:46.131Z,95786.00
2019-05-20T14:34:17.394Z,95788.00
2019-05-20T14:36:52.612Z,95782.00
2019-05-20T14:39:21.908Z,95798.00
2019-05-20T14:41:53.656Z,95787.00
2019-05-20T14:44:44.220Z,95787.00
2019-05-20T14:47:15.789Z,95790.00
2019-05-20T14:49:47.108Z,95780.00
2019-05-20T14:52:18.763Z,95786.00
2019-05-20T14:54:50.138Z,95802.00
2019-05-20T14:57:22.565Z,95786.00
2019-05-20T14:59:53.847Z,95788.00
2019-05-20T15:02:25.281Z,95788.00
2019-05-20T15:04:56.452Z,95792.00
2019-05-20T15:07:30.648Z,95794.00
2019-05-20T15:10:00.988Z,95798.00
2019-05-20T15:12:32.431Z,95799.00
2019-05-20T15:15:03.800Z,95809.00
2019-05-20T15:17:35.080Z,95799.00
2019-05-20T15:20:08.590Z,95796.00
2019-05-20T15:22:39.945Z,95799.00
2019-05-20T15:25:12.698Z,95805.00
2019-05-20T15:27:43.951Z,95795.00
2019-05-20T15:30:15.835Z,95795.00
2019-05-20T15:32:47.126Z,95797.00
2019-05-20T15:35:18.452Z,95788.00
2019-05-20T15:37:49.630Z,95794.00
2019-05-20T15:40:24.099Z,95794.00
2019-05-20T15:42:53.819Z,95797.00
2019-05-20T15:45:25.332Z,95779.00
2019-05-20T15:47:56.615Z,95786.00
2019-05-20T15:50:28.706Z,95788.00
2019-05-20T15:53:00.368Z,95792.00
2019-05-20T15:55:31.997Z,95781.00
2019-05-20T15:58:03.823Z,95781.00
2019-05-20T16:00:35.324Z,95789.00
2019-05-20T16:03:06.780Z,95779.00
2019-05-20T16:05:38.100Z,95775.00
2019-05-20T16:08:09.236Z,95774.00
2019-05-20T16:10:40.532Z,95763.00
2019-05-20T16:13:11.999Z,95760.00
2019-05-20T16:15:43.357Z,95763.00
2019-05-20T16:18:14.492Z,95757.00
2019-05-20T16:20:45.982Z,95762.00
2019-05-20T16:23:17.462Z,95759.00
2019-05-20T16:25:48.887Z,95755.00
2019-05-20T16:28:21.039Z,95770.00
2019-05-20T16:30:52.354Z,95759.00
2019-05-20T16:33:23.545Z,95758.00
2019-05-20T16:35:55.188Z,95770.00
2019-05-20T16:38:26.734Z,95759.00
2019-05-20T16:40:58.048Z,95765.00
2019-05-20T16:43:30.049Z,95764.00
2019-05-20T16:46:01.296Z,95768.00
2019-05-20T16:48:32.587Z,95776.00
2019-05-20T16:51:03.833Z,95775.00
2019-05-20T16:53:35.121Z,95783.00
2019-05-20T16:56:07.511Z,95783.00
2019-05-20T16:58:38.826Z,95786.00
2019-05-20T17:01:10.511Z,95793.00
2019-05-20T17:03:41.794Z,95783.00
2019-05-20T17:06:13.125Z,95791.00
2019-05-20T17:08:44.491Z,95783.00
2019-05-20T17:11:16.106Z,95792.00
2019-05-20T17:13:48.452Z,95782.00
2019-05-20T17:16:19.780Z,95786.00
2019-05-20T17:18:51.106Z,95793.00
2019-05-20T17:21:22.502Z,95790.00
2019-05-20T17:23:53.865Z,95777.00
2019-05-20T17:26:25.224Z,95796.00
2019-05-20T17:28:56.498Z,95789.00
2019-05-20T17:31:30.775Z,95792.00
2019-05-20T17:34:01.655Z,95788.00
2019-05-20T17:36:32.911Z,95796.00
2019-05-20T17:39:05.664Z,95792.00
2019-05-20T17:41:37.406Z,95799.00
2019-05-20T17:44:08.734Z,95793.00
2019-05-20T17:46:40.457Z,95795.00
2019-05-20T17:49:13.031Z,95800.00
2019-05-20T17:51:44.359Z,95797.00
2019-05-20T17:54:15.563Z,95799.00
2019-05-20T17:56:46.866Z,95795.00
2019-05-20T17:59:17.978Z,95832.00
2019-05-20T18:01:49.603Z,95816.00
2019-05-20T18:04:22.050Z,95813.00
2019-05-20T18:06:53.351Z,95794.00
2019-05-20T18:09:26.655Z,95792.00
2019-05-20T18:11:58.036Z,95805.00
2019-05-20T18:14:29.300Z,95800.00
2019-05-20T18:17:00.803Z,95789.00
2019-05-20T18:19:33.208Z,95791.00
2019-05-20T18:22:04.901Z,95786.00
2019-05-20T18:24:36.168Z,95784.00
2019-05-20T18:27:07.461Z,95784.00
2019-05-20T18:29:38.720Z,95784.00
2019-05-20T18:32:11.045Z,95776.00
2019-05-20T18:34:42.672Z,95780.00
2019-05-20T18:37:13.908Z,95775.00
2019-05-20T18:39:45.295Z,95786.00
2019-05-20T18:42:16.982Z,95790.00
2019-05-20T18:44:48.559Z,95774.00
2019-05-20T18:47:19.865Z,95771.00
2019-05-20T18:49:51.468Z,95776.00
2019-05-20T18:52:23.129Z,95782.00
2019-05-20T18:54:54.345Z,95771.00
2019-05-20T18:57:25.959Z,95766.00
2019-05-20T18:59:57.196Z,95763.00
2019-05-20T19:02:28.919Z,95766.00
2019-05-20T19:05:00.268Z,95756.00
2019-05-20T19:07:31.931Z,95771.00
2019-05-20T19:10:03.287Z,95775.00
2019-05-20T19:12:34.815Z,95770.00
2019-05-20T19:15:07.344Z,95760.00
2019-05-20T19:17:38.695Z,95761.00
2019-05-20T19:20:09.992Z,95766.00
2019-05-20T19:22:41.823Z,95766.00
2019-05-20T19:25:13.597Z,95760.00
2019-05-20T19:27:44.901Z,95761.00
2019-05-20T19:30:16.938Z,95761.00
2019-05-20T19:32:48.545Z,95763.00
2019-05-20T19:35:20.882Z,95768.00
2019-05-20T19:37:52.181Z,95773.00
2019-05-20T19:40:23.832Z,95784.00
2019-05-20T19:42:55.185Z,95775.00
2019-05-20T19:45:26.479Z,95774.00
2019-05-20T19:47:57.702Z,95777.00
2019-05-20T19:50:29.036Z,95777.00
2019-05-20T19:53:01.007Z,95782.00
2019-05-20T19:55:32.268Z,95779.00
2019-05-20T19:58:03.799Z,95784.00
2019-05-20T20:00:35.079Z,95780.00
2019-05-20T20:03:07.232Z,95778.00
2019-05-20T20:05:38.504Z,95782.00
2019-05-20T20:08:09.920Z,95777.00
2019-05-20T20:10:41.549Z,95785.00
2019-05-20T20:13:13.157Z,95793.00
2019-05-20T20:15:44.601Z,95787.00
2019-05-20T20:18:16.103Z,95786.00
2019-05-20T20:20:47.412Z,95783.00
2019-05-20T20:23:18.706Z,95786.00
2019-05-20T20:25:50.077Z,95781.00
2019-05-20T20:28:21.307Z,95789.00
2019-05-20T20:30:52.574Z,95789.00
2019-05-20T20:33:23.762Z,95799.00
2019-05-20T20:35:54.953Z,95795.00
2019-05-20T20:38:26.573Z,95793.00
2019-05-20T20:40:58.276Z,95801.00
2019-05-20T20:43:32.190Z,95798.00
2019-05-20T20:46:02.788Z,95802.00
2019-05-20T20:48:34.043Z,95801.00
2019-05-20T20:51:05.661Z,95802.00
2019-05-20T20:53:37.110Z,95799.00
2019-05-20T20:56:22.744Z,95807.00
2019-05-20T20:58:42.045Z,95804.00
2019-05-20T21:01:13.604Z,95797.00
2019-05-20T21:03:44.918Z,95799.00
2019-05-20T21:06:16.313Z,95801.00
2019-05-20T21:08:47.936Z,95801.00
2019-05-20T21:11:19.253Z,95803.00
2019-05-20T21:13:50.593Z,95801.00
2019-05-20T21:16:21.868Z,95793.00
2019-05-20T21:18:53.860Z,95790.00
2019-05-20T21:21:25.009Z,95789.00
2019-05-20T21:23:56.355Z,95796.00
2019-05-20T21:26:28.215Z,95793.00
2019-05-20T21:28:59.598Z,95783.00
2019-05-20T21:31:30.923Z,95802.00
2019-05-20T21:34:02.343Z,95792.00
2019-05-20T21:36:46.626Z,95797.00
2019-05-20T21:39:07.769Z,95797.00
2019-05-20T21:41:39.111Z,95798.00
2019-05-20T21:44:10.332Z,95796.00
2019-05-20T21:46:41.975Z,95792.00
2019-05-20T21:49:13.259Z,95789.00
2019-05-20T21:51:44.473Z,95789.00
2019-05-20T21:54:15.732Z,95783.00
2019-05-20T21:56:50.031Z,95783.00
2019-05-20T21:59:19.931Z,95779.00
2019-05-20T22:01:51.378Z,95783.00
2019-05-20T22:04:22.825Z,95787.00
2019-05-20T22:06:54.476Z,95788.00
2019-05-20T22:09:25.674Z,95777.00
2019-05-20T22:11:56.985Z,95783.00
2019-05-20T22:14:28.174Z,95773.00
2019-05-20T22:16:59.964Z,95765.00
2019-05-20T22:19:31.216Z,95776.00
2019-05-20T22:22:13.995Z,95773.00
2019-05-20T22:24:45.277Z,95771.00
2019-05-20T22:27:16.564Z,95775.00
2019-05-20T22:29:48.204Z,95771.00
2019-05-20T22:32:19.611Z,95771.00
2019-05-20T22:34:53.630Z,95776.00
2019-05-20T22:37:24.311Z,95775.00
2019-05-20T22:39:56.110Z,95772.00
2019-05-20T22:42:27.384Z,95775.00
2019-05-20T22:44:58.521Z,95771.00
2019-05-20T22:47:29.824Z,95768.00
2019-05-20T22:50:00.933Z,95774.00
2019-05-20T22:52:32.559Z,95761.00
2019-05-20T22:55:04.133Z,95759.00
2019-05-20T22:57:35.378Z,95762.00
2019-05-20T23:00:07.234Z,95754.00
2019-05-20T23:02:40.167Z,95763.00
2019-05-20T23:05:11.509Z,95771.00
2019-05-20T23:07:44.368Z,95762.00
2019-05-20T23:10:16.034Z,95780.00
2019-05-20T23:12:47.139Z,95761.00
2019-05-20T23:15:18.796Z,95760.00
2019-05-20T23:17:50.411Z,95755.00
2019-05-20T23:20:21.877Z,95762.00
2019-05-20T23:22:53.554Z,95761.00
2019-05-20T23:25:24.687Z,95764.00
2019-05-20T23:27:55.932Z,95761.00
2019-05-20T23:30:27.486Z,95759.00
2019-05-20T23:32:58.736Z,95768.00
2019-05-20T23:35:29.938Z,95764.00
2019-05-20T23:38:01.538Z,95766.00
2019-05-20T23:40:32.810Z,95762.00
2019-05-20T23:43:04.031Z,95758.00
2019-05-20T23:45:35.671Z,95768.00
2019-05-20T23:48:07.325Z,95763.00
2019-05-20T23:50:38.608Z,95768.00
2019-05-20T23:53:09.847Z,95763.00
2019-05-20T23:55:41.097Z,95763.00
2019-05-20T23:58:12.712Z,95764.00
